createdAt,value
2022-09-30T00:04:53.302Z,93.15
2022-09-30T00:09:54.095Z,93.78
2022-09-30T00:14:56.579Z,93.46
2022-09-30T00:19:57.305Z,92.33
2022-09-30T00:24:58.106Z,93.01
2022-09-30T00:30:00.219Z,92.90
2022-09-30T00:35:00.969Z,92.34
2022-09-30T00:40:01.839Z,92.36
2022-09-30T00:45:08.148Z,92.58
2022-09-30T00:50:20.137Z,92.53
2022-09-30T00:55:50.879Z,92.56
2022-09-30T01:00:53.192Z,93.39
2022-09-30T01:05:54.706Z,93.06
2022-09-30T01:10:55.795Z,92.98
2022-09-30T01:16:17.857Z,92.63
2022-09-30T01:21:46.708Z,93.20
2022-09-30T01:27:06.096Z,93.87
2022-09-30T01:32:19.081Z,93.26
2022-09-30T01:37:29.247Z,93.74
2022-09-30T01:42:40.428Z,94.05
2022-09-30T01:47:47.164Z,93.94
2022-09-30T01:52:57.249Z,94.03
2022-09-30T01:58:01.889Z,94.02
2022-09-30T02:03:10.837Z,94.61
2022-09-30T02:08:30.167Z,94.47
2022-09-30T02:13:37.350Z,95.00
2022-09-30T02:18:42.707Z,95.34
2022-09-30T02:23:46.855Z,94.95
2022-09-30T02:28:52.873Z,95.03
2022-09-30T02:33:59.551Z,95.10
2022-09-30T02:39:04.234Z,95.61
2022-09-30T02:44:05.691Z,94.86
2022-09-30T02:49:12.626Z,95.35
2022-09-30T02:54:20.657Z,95.06
2022-09-30T02:59:22.874Z,96.14
2022-09-30T03:04:28.175Z,95.80
2022-09-30T03:09:29.340Z,96.41
2022-09-30T03:14:43.271Z,95.49
2022-09-30T03:20:08.753Z,96.24
2022-09-30T03:25:28.512Z,96.49
2022-09-30T03:30:33.054Z,96.23
2022-09-30T03:35:43.766Z,95.95
2022-09-30T03:40:54.403Z,96.66
2022-09-30T03:46:02.490Z,96.46
2022-09-30T03:51:06.617Z,96.36
2022-09-30T03:56:07.855Z,96.14
2022-09-30T04:01:09.209Z,96.34
2022-09-30T04:06:14.562Z,96.63
2022-09-30T04:11:16.218Z,96.23
2022-09-30T04:16:16.983Z,98.12
2022-09-30T04:21:19.128Z,97.67
2022-09-30T04:26:20.574Z,97.12
2022-09-30T04:31:21.605Z,96.60
2022-09-30T04:36:24.004Z,96.27
2022-09-30T04:41:25.063Z,97.15
2022-09-30T04:46:25.903Z,97.60
2022-09-30T04:51:28.274Z,97.85
2022-09-30T04:56:29.072Z,98.51
2022-09-30T05:01:29.845Z,98.95
2022-09-30T05:06:31.944Z,99.33
2022-09-30T05:11:32.732Z,99.32
2022-09-30T05:16:33.562Z,99.30
2022-09-30T05:21:35.845Z,99.88
2022-09-30T05:26:36.662Z,100.00
2022-09-30T05:31:37.582Z,99.52
2022-09-30T05:36:40.015Z,99.66
2022-09-30T05:41:40.807Z,99.98
2022-09-30T05:46:41.589Z,99.92
2022-09-30T05:51:44.315Z,98.83
2022-09-30T05:56:45.093Z,98.88
2022-09-30T06:01:45.923Z,98.36
2022-09-30T06:06:48.696Z,97.77
2022-09-30T06:11:49.453Z,97.89
2022-09-30T06:16:50.638Z,97.32
2022-09-30T06:21:52.928Z,96.99
2022-09-30T06:26:54.332Z,96.36
2022-09-30T06:31:55.255Z,96.64
2022-09-30T06:36:57.482Z,95.84
2022-09-30T06:41:58.346Z,94.83
2022-09-30T06:46:59.810Z,93.25
2022-09-30T06:52:02.431Z,92.21
2022-09-30T06:57:03.210Z,90.54
2022-09-30T07:02:04.089Z,89.97
2022-09-30T07:07:06.918Z,88.29
2022-09-30T07:12:07.709Z,85.85
2022-09-30T07:17:08.460Z,84.45
2022-09-30T07:22:30.162Z,83.60
2022-09-30T07:27:33.536Z,83.02
2022-09-30T07:32:34.337Z,82.69
2022-09-30T07:37:37.035Z,82.49
2022-09-30T07:42:38.953Z,81.80
2022-09-30T07:47:39.778Z,81.17
2022-09-30T07:52:41.870Z,81.94
2022-09-30T07:57:42.655Z,81.27
2022-09-30T08:02:43.417Z,80.92
2022-09-30T08:07:45.534Z,80.66
2022-09-30T08:12:46.270Z,79.15
2022-09-30T08:17:47.004Z,76.68
2022-09-30T08:22:49.635Z,76.71
2022-09-30T08:27:50.771Z,75.99
2022-09-30T08:32:51.579Z,74.56
2022-09-30T08:37:54.737Z,74.22
2022-09-30T08:43:13.773Z,73.48
2022-09-30T08:48:31.050Z,73.36
2022-09-30T08:53:37.662Z,73.10
2022-09-30T08:58:42.124Z,71.65
2022-09-30T09:03:43.121Z,72.60
2022-09-30T09:08:59.547Z,72.57
2022-09-30T09:14:04.013Z,72.59
2022-09-30T09:19:10.771Z,71.67
2022-09-30T09:24:17.328Z,70.75
2022-09-30T09:29:35.486Z,70.72
2022-09-30T09:34:39.642Z,69.83
2022-09-30T09:40:09.759Z,67.46
2022-09-30T09:45:17.883Z,67.89
2022-09-30T09:50:25.219Z,66.65
2022-09-30T09:55:27.653Z,64.34
2022-09-30T10:00:46.291Z,63.81
2022-09-30T10:05:59.729Z,62.91
2022-09-30T10:11:04.288Z,60.79
2022-09-30T10:16:06.235Z,60.48
2022-09-30T10:21:20.332Z,60.22
2022-09-30T10:26:24.717Z,61.33
2022-09-30T10:31:28.341Z,59.46
2022-09-30T10:36:33.401Z,58.86
2022-09-30T10:41:38.095Z,58.30
2022-09-30T10:46:41.370Z,58.06
2022-09-30T10:51:47.133Z,56.21
2022-09-30T10:56:54.565Z,52.51
2022-09-30T11:02:05.235Z,52.86
2022-09-30T11:07:17.922Z,52.44
2022-09-30T11:12:26.983Z,52.23
2022-09-30T11:17:33.853Z,52.35
2022-09-30T11:22:47.887Z,49.62
2022-09-30T11:28:09.652Z,49.21
2022-09-30T11:33:36.242Z,51.17
2022-09-30T11:39:05.370Z,52.30
2022-09-30T11:44:23.032Z,51.90
2022-09-30T11:49:39.408Z,49.62
2022-09-30T11:55:00.972Z,51.12
2022-09-30T12:00:08.244Z,48.99
2022-09-30T12:05:20.690Z,48.45
2022-09-30T12:10:25.740Z,49.62
2022-09-30T12:15:28.710Z,47.93
2022-09-30T12:20:33.480Z,45.51
2022-09-30T12:25:41.698Z,47.19
2022-09-30T12:30:44.453Z,47.29
2022-09-30T12:36:20.462Z,45.36
2022-09-30T12:41:35.325Z,46.99
2022-09-30T12:47:03.891Z,46.20
2022-09-30T12:52:07.656Z,47.59
2022-09-30T12:57:10.231Z,47.12
2022-09-30T13:02:31.831Z,45.77
2022-09-30T13:07:34.466Z,44.65
2022-09-30T13:12:46.753Z,46.31
2022-09-30T13:17:51.562Z,43.76
2022-09-30T13:22:59.979Z,44.97
2022-09-30T13:28:29.879Z,45.41
2022-09-30T13:33:47.204Z,45.68
2022-09-30T13:39:09.697Z,46.95
2022-09-30T13:44:17.771Z,46.66
2022-09-30T13:49:23.697Z,45.94
2022-09-30T13:54:30.126Z,47.00
2022-09-30T14:00:01.788Z,47.62
2022-09-30T14:05:36.381Z,47.83
2022-09-30T14:10:54.346Z,49.18
2022-09-30T14:16:36.934Z,49.84
2022-09-30T14:21:43.033Z,51.38
2022-09-30T14:27:01.985Z,50.03
2022-09-30T14:32:12.678Z,49.99
2022-09-30T14:37:22.755Z,49.88
2022-09-30T14:42:29.617Z,52.06
2022-09-30T14:47:32.044Z,51.53
2022-09-30T14:52:37.988Z,49.65
2022-09-30T14:57:38.905Z,50.64
2022-09-30T15:02:46.808Z,50.50
2022-09-30T15:07:49.338Z,50.39
2022-09-30T15:12:51.666Z,50.19
2022-09-30T15:17:55.446Z,50.25
2022-09-30T15:22:59.897Z,51.08
2022-09-30T15:28:00.809Z,50.85
2022-09-30T15:33:03.392Z,51.04
2022-09-30T15:38:10.942Z,51.58
2022-09-30T15:43:15.684Z,51.69
2022-09-30T15:48:36.070Z,52.15
2022-09-30T15:53:50.007Z,53.06
2022-09-30T15:58:56.510Z,54.30
2022-09-30T16:03:59.410Z,55.26
2022-09-30T16:09:06.500Z,56.23
2022-09-30T16:14:11.292Z,56.97
2022-09-30T16:19:18.392Z,56.57
2022-09-30T16:24:47.290Z,57.11
2022-09-30T16:29:48.107Z,57.71
2022-09-30T16:34:48.973Z,58.43
2022-09-30T16:39:51.496Z,59.78
2022-09-30T16:44:52.284Z,61.09
2022-09-30T16:49:53.252Z,62.18
2022-09-30T16:54:55.410Z,63.60
2022-09-30T16:59:56.274Z,65.55
2022-09-30T17:04:57.068Z,66.31
2022-09-30T17:09:59.679Z,67.22
2022-09-30T17:15:00.425Z,68.44
2022-09-30T17:20:01.277Z,69.91
2022-09-30T17:25:03.521Z,70.50
2022-09-30T17:30:05.020Z,71.79
2022-09-30T17:35:08.405Z,72.70
2022-09-30T17:40:25.164Z,73.65
2022-09-30T17:45:27.966Z,75.01
2022-09-30T17:50:29.015Z,75.57
2022-09-30T17:55:31.307Z,75.54
2022-09-30T18:00:32.602Z,75.66
2022-09-30T18:05:34.121Z,76.41
2022-09-30T18:10:38.660Z,75.73
2022-09-30T18:15:40.644Z,76.39
2022-09-30T18:20:44.913Z,75.54
2022-09-30T18:25:49.623Z,75.28
2022-09-30T18:30:50.435Z,75.28
2022-09-30T18:35:51.745Z,75.75
2022-09-30T18:40:54.545Z,75.73
2022-09-30T18:45:56.847Z,75.98
2022-09-30T18:51:03.337Z,76.92
2022-09-30T18:56:06.113Z,77.91
2022-09-30T19:01:07.780Z,78.59
2022-09-30T19:06:09.414Z,80.03
2022-09-30T19:11:14.744Z,80.31
2022-09-30T19:16:18.367Z,82.38
2022-09-30T19:21:22.169Z,81.88
2022-09-30T19:26:27.097Z,81.99
2022-09-30T19:31:28.479Z,82.10
2022-09-30T19:36:41.348Z,82.32
2022-09-30T19:41:49.986Z,82.63
2022-09-30T19:46:51.210Z,83.16
2022-09-30T19:51:53.255Z,82.75
2022-09-30T19:56:55.336Z,82.34
2022-09-30T20:01:56.190Z,82.74
2022-09-30T20:06:57.020Z,83.45
2022-09-30T20:11:59.212Z,84.06
2022-09-30T20:17:00.022Z,84.38
2022-09-30T20:22:00.911Z,84.36
2022-09-30T20:27:03.011Z,85.13
2022-09-30T20:32:04.003Z,85.33
2022-09-30T20:37:04.799Z,85.79
2022-09-30T20:42:07.496Z,85.97
2022-09-30T20:47:08.206Z,85.60
2022-09-30T20:52:08.947Z,85.90
2022-09-30T20:57:11.013Z,86.64
2022-09-30T21:02:14.099Z,87.35
2022-09-30T21:07:14.980Z,87.18
2022-09-30T21:12:17.243Z,87.34
2022-09-30T21:17:17.991Z,88.31
2022-09-30T21:22:18.767Z,88.53
2022-09-30T21:27:20.857Z,89.58
2022-09-30T21:32:21.634Z,90.34
2022-09-30T21:37:22.406Z,90.04
2022-09-30T21:42:24.515Z,89.69
2022-09-30T21:47:25.410Z,90.71
2022-09-30T21:52:28.604Z,90.98
2022-09-30T21:57:34.135Z,91.38
2022-09-30T22:02:36.291Z,91.75
2022-09-30T22:07:38.042Z,91.13
2022-09-30T22:12:40.332Z,92.10
2022-09-30T22:17:41.152Z,91.61
2022-09-30T22:22:41.877Z,91.85
2022-09-30T22:27:44.173Z,92.91
2022-09-30T22:32:44.965Z,93.45
2022-09-30T22:38:09.496Z,93.62
2022-09-30T22:43:11.564Z,93.53
2022-09-30T22:48:21.286Z,94.54
2022-09-30T22:53:22.025Z,93.33
2022-09-30T22:58:25.280Z,93.75
2022-09-30T23:03:26.952Z,94.04
2022-09-30T23:08:31.996Z,93.84
2022-09-30T23:13:34.897Z,94.28
2022-09-30T23:18:36.001Z,95.08
2022-09-30T23:23:38.125Z,95.48
2022-09-30T23:28:40.819Z,95.90
2022-09-30T23:33:47.101Z,95.92
2022-09-30T23:38:48.178Z,95.82
2022-09-30T23:43:50.280Z,96.40
2022-09-30T23:48:51.159Z,96.62
2022-09-30T23:53:51.896Z,96.18
2022-09-30T23:58:53.984Z,96.06
